sensor_id;sensor_type;location;lat;lon;timestamp;pressure;altitude;pressure_sealevel;temperature;humidity
51468;BME280;37545;45.302;-122.946;2023-01-28T00:01:34;101720.38;;;12.59;84.07
51468;BME280;37545;45.302;-122.946;2023-01-28T00:04:03;101723.69;;;12.55;86.19
51468;BME280;37545;45.302;-122.946;2023-01-28T00:06:31;101717.63;;;12.54;83.48
51468;BME280;37545;45.302;-122.946;2023-01-28T00:09:00;101724.63;;;12.57;81.21
51468;BME280;37545;45.302;-122.946;2023-01-28T00:11:28;101705.66;;;12.58;80.15
51468;BME280;37545;45.302;-122.946;2023-01-28T00:13:57;101709.22;;;12.62;79.97
51468;BME280;37545;45.302;-122.946;2023-01-28T00:16:27;101716.25;;;12.64;79.75
51468;BME280;37545;45.302;-122.946;2023-01-28T00:18:56;101708.44;;;12.64;81.54
51468;BME280;37545;45.302;-122.946;2023-01-28T00:21:25;101712.16;;;12.71;81.96
51468;BME280;37545;45.302;-122.946;2023-01-28T00:23:54;101708.06;;;12.77;82.69
51468;BME280;37545;45.302;-122.946;2023-01-28T00:26:23;101707.19;;;12.77;82.45
51468;BME280;37545;45.302;-122.946;2023-01-28T00:28:52;101706.31;;;12.76;83.31
51468;BME280;37545;45.302;-122.946;2023-01-28T00:31:22;101699.34;;;12.75;82.10
51468;BME280;37545;45.302;-122.946;2023-01-28T00:33:54;101703.38;;;12.67;74.68
51468;BME280;37545;45.302;-122.946;2023-01-28T00:36:23;101695.47;;;12.64;75.21
51468;BME280;37545;45.302;-122.946;2023-01-28T00:38:53;101697.03;;;12.59;74.33
51468;BME280;37545;45.302;-122.946;2023-01-28T00:41:23;101687.25;;;12.52;73.84
51468;BME280;37545;45.302;-122.946;2023-01-28T00:43:52;101687.84;;;12.45;71.78
51468;BME280;37545;45.302;-122.946;2023-01-28T00:46:21;101685.88;;;12.38;70.95
51468;BME280;37545;45.302;-122.946;2023-01-28T00:48:52;101683.88;;;12.30;70.61
51468;BME280;37545;45.302;-122.946;2023-01-28T00:51:21;101680.19;;;12.25;72.14
51468;BME280;37545;45.302;-122.946;2023-01-28T00:53:50;101676.69;;;12.23;71.83
51468;BME280;37545;45.302;-122.946;2023-01-28T00:56:19;101680.19;;;12.25;72.73
51468;BME280;37545;45.302;-122.946;2023-01-28T00:58:47;101678.56;;;12.27;73.08
51468;BME280;37545;45.302;-122.946;2023-01-28T01:01:18;101681.16;;;12.27;72.58
51468;BME280;37545;45.302;-122.946;2023-01-28T01:03:47;101669.06;;;12.28;71.97
51468;BME280;37545;45.302;-122.946;2023-01-28T01:06:30;101659.25;;;12.19;71.66
51468;BME280;37545;45.302;-122.946;2023-01-28T01:08:59;101675.00;;;12.25;72.27
51468;BME280;37545;45.302;-122.946;2023-01-28T01:11:28;101674.13;;;12.25;72.77
51468;BME280;37545;45.302;-122.946;2023-01-28T01:13:58;101668.06;;;12.24;71.43
51468;BME280;37545;45.302;-122.946;2023-01-28T01:16:28;101670.50;;;12.20;69.80
51468;BME280;37545;45.302;-122.946;2023-01-28T01:18:59;101671.16;;;12.14;68.73
51468;BME280;37545;45.302;-122.946;2023-01-28T01:21:29;101674.47;;;12.10;68.85
51468;BME280;37545;45.302;-122.946;2023-01-28T01:23:58;101670.78;;;12.05;70.45
51468;BME280;37545;45.302;-122.946;2023-01-28T01:26:26;101671.50;;;12.01;70.73
51468;BME280;37545;45.302;-122.946;2023-01-28T01:28:55;101666.25;;;11.99;70.65
51468;BME280;37545;45.302;-122.946;2023-01-28T01:31:24;101660.97;;;11.96;70.25
51468;BME280;37545;45.302;-122.946;2023-01-28T01:33:52;101659.84;;;11.89;70.75
51468;BME280;37545;45.302;-122.946;2023-01-28T01:36:21;101660.41;;;11.82;71.39
51468;BME280;37545;45.302;-122.946;2023-01-28T01:38:54;101663.63;;;11.77;72.08
51468;BME280;37545;45.302;-122.946;2023-01-28T01:41:26;101665.34;;;11.76;72.33
51468;BME280;37545;45.302;-122.946;2023-01-28T01:43:57;101659.91;;;11.70;74.73
51468;BME280;37545;45.302;-122.946;2023-01-28T01:46:32;101664.03;;;11.65;78.31
51468;BME280;37545;45.302;-122.946;2023-01-28T01:49:07;101667.31;;;11.61;79.34
51468;BME280;37545;45.302;-122.946;2023-01-28T01:51:40;101665.41;;;11.57;80.55
51468;BME280;37545;45.302;-122.946;2023-01-28T01:54:10;101668.75;;;11.52;80.56
51468;BME280;37545;45.302;-122.946;2023-01-28T01:56:41;101676.31;;;11.48;81.11
51468;BME280;37545;45.302;-122.946;2023-01-28T01:59:11;101666.47;;;11.39;81.64
51468;BME280;37545;45.302;-122.946;2023-01-28T02:01:42;101673.19;;;11.34;81.42
51468;BME280;37545;45.302;-122.946;2023-01-28T02:04:16;101668.53;;;11.27;81.51
51468;BME280;37545;45.302;-122.946;2023-01-28T02:06:47;101669.88;;;11.17;80.74
51468;BME280;37545;45.302;-122.946;2023-01-28T02:09:27;101677.31;;;11.09;81.18
51468;BME280;37545;45.302;-122.946;2023-01-28T02:11:58;101677.69;;;10.98;81.30
51468;BME280;37545;45.302;-122.946;2023-01-28T02:14:29;101678.06;;;10.86;82.25
51468;BME280;37545;45.302;-122.946;2023-01-28T02:17:00;101676.00;;;10.79;83.23
51468;BME280;37545;45.302;-122.946;2023-01-28T02:19:33;101678.25;;;10.71;83.07
51468;BME280;37545;45.302;-122.946;2023-01-28T02:22:26;101685.84;;;10.66;83.97
51468;BME280;37545;45.302;-122.946;2023-01-28T02:28:26;101700.81;;;10.54;85.75
51468;BME280;37545;45.302;-122.946;2023-01-28T02:31:00;101698.03;;;10.50;86.14
51468;BME280;37545;45.302;-122.946;2023-01-28T02:33:34;101697.63;;;10.40;87.21
51468;BME280;37545;45.302;-122.946;2023-01-28T02:36:14;101694.00;;;10.37;87.19
51468;BME280;37545;45.302;-122.946;2023-01-28T02:38:47;101694.66;;;10.33;88.12
51468;BME280;37545;45.302;-122.946;2023-01-28T02:41:24;101686.78;;;10.30;88.30
51468;BME280;37545;45.302;-122.946;2023-01-28T02:44:00;101696.13;;;10.27;88.93
51468;BME280;37545;45.302;-122.946;2023-01-28T02:46:36;101694.09;;;10.20;89.21
51468;BME280;37545;45.302;-122.946;2023-01-28T02:49:26;101691.91;;;10.10;89.46
51468;BME280;37545;45.302;-122.946;2023-01-28T02:52:12;101696.63;;;10.01;90.34
51468;BME280;37545;45.302;-122.946;2023-01-28T02:54:49;101697.00;;;9.91;90.83
51468;BME280;37545;45.302;-122.946;2023-01-28T02:57:29;101698.34;;;9.82;91.91
51468;BME280;37545;45.302;-122.946;2023-01-28T03:00:08;101701.75;;;9.81;91.79
51468;BME280;37545;45.302;-122.946;2023-01-28T03:02:43;101702.56;;;9.80;92.08
51468;BME280;37545;45.302;-122.946;2023-01-28T03:05:18;101699.81;;;9.77;91.62
51468;BME280;37545;45.302;-122.946;2023-01-28T03:07:49;101698.72;;;9.72;91.71
51468;BME280;37545;45.302;-122.946;2023-01-28T03:10:20;101702.13;;;9.71;92.20
51468;BME280;37545;45.302;-122.946;2023-01-28T03:12:53;101692.59;;;9.70;91.66
51468;BME280;37545;45.302;-122.946;2023-01-28T03:15:41;101693.25;;;9.66;92.41
51468;BME280;37545;45.302;-122.946;2023-01-28T03:18:31;101677.09;;;9.52;92.71
51468;BME280;37545;45.302;-122.946;2023-01-28T03:21:23;101691.28;;;9.60;91.89
51468;BME280;37545;45.302;-122.946;2023-01-28T03:24:13;101685.94;;;9.57;92.41
51468;BME280;37545;45.302;-122.946;2023-01-28T03:27:04;101676.34;;;9.55;92.35
51468;BME280;37545;45.302;-122.946;2023-01-28T03:29:53;101681.06;;;9.46;92.81
51468;BME280;37545;45.302;-122.946;2023-01-28T03:32:42;101674.78;;;9.40;92.91
51468;BME280;37545;45.302;-122.946;2023-01-28T03:35:30;101677.88;;;9.33;93.99
51468;BME280;37545;45.302;-122.946;2023-01-28T03:38:18;101680.97;;;9.26;94.25
51468;BME280;37545;45.302;-122.946;2023-01-28T03:40:49;101683.41;;;9.23;95.66
51468;BME280;37545;45.302;-122.946;2023-01-28T03:43:18;101685.84;;;9.20;95.70
51468;BME280;37545;45.302;-122.946;2023-01-28T03:45:47;101685.84;;;9.20;96.31
51468;BME280;37545;45.302;-122.946;2023-01-28T03:48:18;101686.81;;;9.22;96.65
51468;BME280;37545;45.302;-122.946;2023-01-28T03:50:48;101683.41;;;9.23;95.76
51468;BME280;37545;45.302;-122.946;2023-01-28T03:53:17;101678.97;;;9.20;96.11
51468;BME280;37545;45.302;-122.946;2023-01-28T03:55:48;101689.25;;;9.19;96.28
51468;BME280;37545;45.302;-122.946;2023-01-28T03:58:17;101684.06;;;9.19;97.43
51468;BME280;37545;45.302;-122.946;2023-01-28T04:00:46;101681.50;;;9.19;97.32
51468;BME280;37545;45.302;-122.946;2023-01-28T04:03:18;101677.94;;;9.17;97.13
51468;BME280;37545;45.302;-122.946;2023-01-28T04:05:58;101676.97;;;9.15;97.70
51468;BME280;37545;45.302;-122.946;2023-01-28T04:08:27;101684.72;;;9.15;98.78
51468;BME280;37545;45.302;-122.946;2023-01-28T04:10:55;101673.53;;;9.14;98.75
51468;BME280;37545;45.302;-122.946;2023-01-28T04:13:24;101676.25;;;9.17;97.89
51468;BME280;37545;45.302;-122.946;2023-01-28T04:15:52;101673.53;;;9.14;96.73
51468;BME280;37545;45.302;-122.946;2023-01-28T04:18:23;101668.41;;;9.16;96.73
51468;BME280;37545;45.302;-122.946;2023-01-28T04:20:52;101678.19;;;9.21;96.46
51468;BME280;37545;45.302;-122.946;2023-01-28T04:23:21;101682.47;;;9.21;95.57
51468;BME280;37545;45.302;-122.946;2023-01-28T04:25:50;101671.00;;;9.16;96.67
51468;BME280;37545;45.302;-122.946;2023-01-28T04:28:25;101673.66;;;9.17;95.62
51468;BME280;37545;45.302;-122.946;2023-01-28T04:31:00;101663.09;;;9.13;96.46
51468;BME280;37545;45.302;-122.946;2023-01-28T04:33:31;101660.28;;;9.08;96.70
51468;BME280;37545;45.302;-122.946;2023-01-28T04:35:59;101658.34;;;9.04;96.78
51468;BME280;37545;45.302;-122.946;2023-01-28T04:38:28;101662.19;;;8.94;97.96
51468;BME280;37545;45.302;-122.946;2023-01-28T04:40:56;101653.88;;;8.84;98.79
51468;BME280;37545;45.302;-122.946;2023-01-28T04:43:25;101659.69;;;8.79;98.96
51468;BME280;37545;45.302;-122.946;2023-01-28T04:45:54;101653.34;;;8.73;100.00
51468;BME280;37545;45.302;-122.946;2023-01-28T04:48:22;101656.72;;;8.72;100.00
51468;BME280;37545;45.302;-122.946;2023-01-28T04:50:52;101658.44;;;8.71;100.00
51468;BME280;37545;45.302;-122.946;2023-01-28T04:53:21;101668.75;;;8.71;100.00
51468;BME280;37545;45.302;-122.946;2023-01-28T04:55:50;101661.50;;;8.64;99.14
51468;BME280;37545;45.302;-122.946;2023-01-28T04:58:18;101668.91;;;8.58;99.46
51468;BME280;37545;45.302;-122.946;2023-01-28T05:00:53;101659.00;;;8.49;100.00
51468;BME280;37545;45.302;-122.946;2023-01-28T05:03:21;101667.56;;;8.48;100.00
51468;BME280;37545;45.302;-122.946;2023-01-28T05:05:52;101658.44;;;8.38;100.00
51468;BME280;37545;45.302;-122.946;2023-01-28T05:08:20;101658.19;;;8.34;100.00
51468;BME280;37545;45.302;-122.946;2023-01-28T05:10:49;101660.56;;;8.31;100.00
51468;BME280;37545;45.302;-122.946;2023-01-28T05:13:20;101665.59;;;8.28;100.00
51468;BME280;37545;45.302;-122.946;2023-01-28T05:15:51;101661.69;;;8.19;100.00
51468;BME280;37545;45.302;-122.946;2023-01-28T05:18:20;101663.88;;;8.12;100.00
51468;BME280;37545;45.302;-122.946;2023-01-28T05:20:48;101664.25;;;8.03;100.00
51468;BME280;37545;45.302;-122.946;2023-01-28T05:23:18;101659.06;;;7.87;100.00
51468;BME280;37545;45.302;-122.946;2023-01-28T05:25:47;101668.91;;;7.94;100.00
51468;BME280;37545;45.302;-122.946;2023-01-28T05:28:16;101671.88;;;7.85;100.00
51468;BME280;37545;45.302;-122.946;2023-01-28T05:30:44;101671.81;;;7.84;100.00
51468;BME280;37545;45.302;-122.946;2023-01-28T05:33:13;101667.38;;;7.81;100.00
51468;BME280;37545;45.302;-122.946;2023-01-28T05:35:42;101666.41;;;7.79;100.00
51468;BME280;37545;45.302;-122.946;2023-01-28T05:38:10;101662.59;;;7.72;100.00
51468;BME280;37545;45.302;-122.946;2023-01-28T05:40:41;101660.38;;;7.64;100.00
51468;BME280;37545;45.302;-122.946;2023-01-28T05:43:09;101659.97;;;7.56;100.00
51468;BME280;37545;45.302;-122.946;2023-01-28T05:45:38;101652.75;;;7.50;100.00
51468;BME280;37545;45.302;-122.946;2023-01-28T05:48:06;101654.28;;;7.47;100.00
51468;BME280;37545;45.302;-122.946;2023-01-28T05:50:35;101656.63;;;7.42;100.00
51468;BME280;37545;45.302;-122.946;2023-01-28T05:53:05;101649.41;;;7.37;100.00
51468;BME280;37545;45.302;-122.946;2023-01-28T05:55:33;101651.72;;;7.32;100.00
51468;BME280;37545;45.302;-122.946;2023-01-28T05:58:03;101648.16;;;7.30;100.00
51468;BME280;37545;45.302;-122.946;2023-01-28T06:00:32;101641.06;;;7.26;100.00
51468;BME280;37545;45.302;-122.946;2023-01-28T06:03:01;101644.34;;;7.23;100.00
51468;BME280;37545;45.302;-122.946;2023-01-28T06:05:29;101650.94;;;7.18;100.00
51468;BME280;37545;45.302;-122.946;2023-01-28T06:07:58;101643.84;;;7.14;100.00
51468;BME280;37545;45.302;-122.946;2023-01-28T06:10:26;101643.50;;;7.08;100.00
51468;BME280;37545;45.302;-122.946;2023-01-28T06:12:55;101647.56;;;7.04;100.00
51468;BME280;37545;45.302;-122.946;2023-01-28T06:15:25;101655.13;;;7.01;100.00
51468;BME280;37545;45.302;-122.946;2023-01-28T06:17:54;101650.41;;;6.94;100.00
51468;BME280;37545;45.302;-122.946;2023-01-28T06:20:22;101660.50;;;6.91;100.00
51468;BME280;37545;45.302;-122.946;2023-01-28T06:22:51;101651.75;;;6.87;100.00
51468;BME280;37545;45.302;-122.946;2023-01-28T06:25:20;101650.66;;;6.84;99.63
51468;BME280;37545;45.302;-122.946;2023-01-28T06:27:48;101658.91;;;6.78;99.06
51468;BME280;37545;45.302;-122.946;2023-01-28T06:30:17;101651.81;;;6.74;100.00
51468;BME280;37545;45.302;-122.946;2023-01-28T06:32:53;101653.41;;;6.72;99.63
51468;BME280;37545;45.302;-122.946;2023-01-28T06:35:22;101661.72;;;6.68;100.00
51468;BME280;37545;45.302;-122.946;2023-01-28T06:37:51;101663.31;;;6.66;99.92
51468;BME280;37545;45.302;-122.946;2023-01-28T06:40:20;101658.78;;;6.62;100.00
51468;BME280;37545;45.302;-122.946;2023-01-28T06:42:50;101654.28;;;6.58;100.00
51468;BME280;37545;45.302;-122.946;2023-01-28T06:45:18;101648.03;;;6.54;100.00
51468;BME280;37545;45.302;-122.946;2023-01-28T06:47:49;101631.56;;;6.50;100.00
51468;BME280;37545;45.302;-122.946;2023-01-28T06:50:17;101646.78;;;6.47;100.00
51468;BME280;37545;45.302;-122.946;2023-01-28T06:52:46;101639.59;;;6.42;100.00
51468;BME280;37545;45.302;-122.946;2023-01-28T06:55:15;101640.31;;;6.39;100.00
51468;BME280;37545;45.302;-122.946;2023-01-28T06:57:43;101640.09;;;6.36;100.00
51468;BME280;37545;45.302;-122.946;2023-01-28T07:00:12;101639.81;;;6.32;99.86
51468;BME280;37545;45.302;-122.946;2023-01-28T07:02:41;101644.78;;;6.28;99.78
51468;BME280;37545;45.302;-122.946;2023-01-28T07:05:12;101642.91;;;6.26;100.00
51468;BME280;37545;45.302;-122.946;2023-01-28T07:07:40;101641.94;;;6.24;100.00
51468;BME280;37545;45.302;-122.946;2023-01-28T07:10:10;101647.78;;;6.21;100.00
51468;BME280;37545;45.302;-122.946;2023-01-28T07:12:39;101646.91;;;6.21;100.00
51468;BME280;37545;45.302;-122.946;2023-01-28T07:15:08;101647.69;;;6.20;100.00
51468;BME280;37545;45.302;-122.946;2023-01-28T07:17:39;101631.81;;;6.12;100.00
51468;BME280;37545;45.302;-122.946;2023-01-28T07:20:09;101642.53;;;6.20;100.00
51468;BME280;37545;45.302;-122.946;2023-01-28T07:22:40;101646.00;;;6.20;100.00
51468;BME280;37545;45.302;-122.946;2023-01-28T07:25:10;101641.75;;;6.21;100.00
51468;BME280;37545;45.302;-122.946;2023-01-28T07:27:39;101641.06;;;6.23;100.00
51468;BME280;37545;45.302;-122.946;2023-01-28T07:30:08;101643.53;;;6.22;100.00
51468;BME280;37545;45.302;-122.946;2023-01-28T07:32:37;101635.00;;;6.23;100.00
51468;BME280;37545;45.302;-122.946;2023-01-28T07:35:07;101635.22;;;6.26;100.00
51468;BME280;37545;45.302;-122.946;2023-01-28T07:37:35;101628.28;;;6.25;100.00
51468;BME280;37545;45.302;-122.946;2023-01-28T07:40:06;101632.66;;;6.26;100.00
51468;BME280;37545;45.302;-122.946;2023-01-28T07:42:35;101630.25;;;6.29;100.00
51468;BME280;37545;45.302;-122.946;2023-01-28T07:45:04;101626.69;;;6.27;100.00
51468;BME280;37545;45.302;-122.946;2023-01-28T07:47:33;101620.56;;;6.25;100.00
51468;BME280;37545;45.302;-122.946;2023-01-28T07:50:02;101618.00;;;6.25;100.00
51468;BME280;37545;45.302;-122.946;2023-01-28T07:52:30;101620.66;;;6.26;100.00
51468;BME280;37545;45.302;-122.946;2023-01-28T07:55:06;101622.44;;;6.27;100.00
51468;BME280;37545;45.302;-122.946;2023-01-28T07:57:35;101612.34;;;6.31;100.00
51468;BME280;37545;45.302;-122.946;2023-01-28T08:00:04;101616.78;;;6.33;100.00
51468;BME280;37545;45.302;-122.946;2023-01-28T08:02:32;101611.66;;;6.33;100.00
51468;BME280;37545;45.302;-122.946;2023-01-28T08:05:01;101603.34;;;6.37;100.00
51468;BME280;37545;45.302;-122.946;2023-01-28T08:07:30;101608.47;;;6.37;100.00
51468;BME280;37545;45.302;-122.946;2023-01-28T08:09:58;101606.91;;;6.39;100.00
51468;BME280;37545;45.302;-122.946;2023-01-28T08:12:28;101604.31;;;6.39;100.00
51468;BME280;37545;45.302;-122.946;2023-01-28T08:14:57;101605.19;;;6.40;100.00
51468;BME280;37545;45.302;-122.946;2023-01-28T08:17:27;101607.06;;;6.42;100.00
51468;BME280;37545;45.302;-122.946;2023-01-28T08:19:55;101605.47;;;6.44;100.00
51468;BME280;37545;45.302;-122.946;2023-01-28T08:22:24;101609.03;;;6.46;100.00
51468;BME280;37545;45.302;-122.946;2023-01-28T08:24:53;101601.38;;;6.48;100.00
51468;BME280;37545;45.302;-122.946;2023-01-28T08:27:22;101599.78;;;6.50;100.00
51468;BME280;37545;45.302;-122.946;2023-01-28T08:29:52;101598.22;;;6.52;100.00
51468;BME280;37545;45.302;-122.946;2023-01-28T08:32:21;101590.59;;;6.54;100.00
51468;BME280;37545;45.302;-122.946;2023-01-28T08:34:49;101583.88;;;6.56;100.00
51468;BME280;37545;45.302;-122.946;2023-01-28T08:37:18;101584.63;;;6.55;100.00
51468;BME280;37545;45.302;-122.946;2023-01-28T08:39:46;101587.84;;;6.50;100.00
51468;BME280;37545;45.302;-122.946;2023-01-28T08:42:15;101573.03;;;6.46;100.00
51468;BME280;37545;45.302;-122.946;2023-01-28T08:44:44;101573.03;;;6.46;100.00
51468;BME280;37545;45.302;-122.946;2023-01-28T08:47:15;101571.44;;;6.48;100.00
51468;BME280;37545;45.302;-122.946;2023-01-28T08:49:44;101572.44;;;6.50;100.00
51468;BME280;37545;45.302;-122.946;2023-01-28T08:52:12;101557.16;;;6.54;100.00
51468;BME280;37545;45.302;-122.946;2023-01-28T08:54:41;101559.91;;;6.57;100.00
51468;BME280;37545;45.302;-122.946;2023-01-28T08:57:09;101566.13;;;6.60;100.00
51468;BME280;37545;45.302;-122.946;2023-01-28T08:59:38;101566.19;;;6.62;100.00
51468;BME280;37545;45.302;-122.946;2023-01-28T09:02:14;101568.78;;;6.62;100.00
51468;BME280;37545;45.302;-122.946;2023-01-28T09:04:42;101571.44;;;6.63;100.00
51468;BME280;37545;45.302;-122.946;2023-01-28T09:07:11;101559.56;;;6.65;100.00
51468;BME280;37545;45.302;-122.946;2023-01-28T09:09:39;101565.59;;;6.66;100.00
51468;BME280;37545;45.302;-122.946;2023-01-28T09:12:08;101565.59;;;6.66;100.00
51468;BME280;37545;45.302;-122.946;2023-01-28T09:14:37;101562.31;;;6.68;100.00
51468;BME280;37545;45.302;-122.946;2023-01-28T09:17:06;101553.00;;;6.70;100.00
51468;BME280;37545;45.302;-122.946;2023-01-28T09:19:36;101547.94;;;6.72;100.00
51468;BME280;37545;45.302;-122.946;2023-01-28T09:22:05;101553.88;;;6.71;100.00
51468;BME280;37545;45.302;-122.946;2023-01-28T09:24:33;101549.53;;;6.70;100.00
51468;BME280;37545;45.302;-122.946;2023-01-28T09:27:02;101549.44;;;6.68;100.00
51468;BME280;37545;45.302;-122.946;2023-01-28T09:29:33;101565.78;;;6.69;100.00
51468;BME280;37545;45.302;-122.946;2023-01-28T09:32:01;101556.44;;;6.71;100.00
51468;BME280;37545;45.302;-122.946;2023-01-28T09:34:30;101556.53;;;6.72;100.00
51468;BME280;37545;45.302;-122.946;2023-01-28T09:37:00;101554.25;;;6.77;100.00
51468;BME280;37545;45.302;-122.946;2023-01-28T09:39:29;101559.38;;;6.77;100.00
51468;BME280;37545;45.302;-122.946;2023-01-28T09:42:08;101559.47;;;6.79;100.00
51468;BME280;37545;45.302;-122.946;2023-01-28T09:44:52;101558.75;;;6.81;100.00
51468;BME280;37545;45.302;-122.946;2023-01-28T09:47:29;101546.88;;;6.83;100.00
51468;BME280;37545;45.302;-122.946;2023-01-28T09:50:03;101552.19;;;6.86;100.00
51468;BME280;37545;45.302;-122.946;2023-01-28T09:52:36;101551.41;;;6.87;100.00
51468;BME280;37545;45.302;-122.946;2023-01-28T09:55:13;101544.66;;;6.89;100.00
51468;BME280;37545;45.302;-122.946;2023-01-28T09:57:47;101537.72;;;6.88;100.00
51468;BME280;37545;45.302;-122.946;2023-01-28T10:00:20;101542.16;;;6.91;100.00
51468;BME280;37545;45.302;-122.946;2023-01-28T10:03:01;101530.00;;;6.88;100.00
51468;BME280;37545;45.302;-122.946;2023-01-28T10:05:42;101531.09;;;6.92;100.00
51468;BME280;37545;45.302;-122.946;2023-01-28T10:08:29;101544.03;;;6.93;100.00
51468;BME280;37545;45.302;-122.946;2023-01-28T10:11:13;101546.59;;;6.93;100.00
51468;BME280;37545;45.302;-122.946;2023-01-28T10:13:51;101544.03;;;6.93;100.00
51468;BME280;37545;45.302;-122.946;2023-01-28T10:16:27;101546.78;;;6.97;100.00
51468;BME280;37545;45.302;-122.946;2023-01-28T10:19:01;101545.19;;;6.99;100.00
51468;BME280;37545;45.302;-122.946;2023-01-28T10:21:33;101554.66;;;7.00;100.00
51468;BME280;37545;45.302;-122.946;2023-01-28T10:24:10;101553.69;;;6.98;100.00
51468;BME280;37545;45.302;-122.946;2023-01-28T10:26:43;101548.53;;;6.98;100.00
51468;BME280;37545;45.302;-122.946;2023-01-28T10:29:15;101530.13;;;6.90;100.00
51468;BME280;37545;45.302;-122.946;2023-01-28T10:31:51;101536.13;;;6.90;100.00
51468;BME280;37545;45.302;-122.946;2023-01-28T10:34:21;101531.63;;;6.86;100.00
51468;BME280;37545;45.302;-122.946;2023-01-28T10:36:50;101506.19;;;6.76;100.00
51468;BME280;37545;45.302;-122.946;2023-01-28T10:39:22;101518.38;;;6.80;100.00
51468;BME280;37545;45.302;-122.946;2023-01-28T10:41:51;101509.72;;;6.78;100.00
51468;BME280;37545;45.302;-122.946;2023-01-28T10:44:29;101509.63;;;6.77;100.00
51468;BME280;37545;45.302;-122.946;2023-01-28T10:47:01;101506.19;;;6.76;100.00
51468;BME280;37545;45.302;-122.946;2023-01-28T10:49:31;101500.22;;;6.77;100.00
51468;BME280;37545;45.302;-122.946;2023-01-28T10:52:11;101486.47;;;6.77;100.00
51468;BME280;37545;45.302;-122.946;2023-01-28T10:54:41;101493.75;;;6.84;100.00
51468;BME280;37545;45.302;-122.946;2023-01-28T10:57:12;101485.31;;;6.86;100.00
51468;BME280;37545;45.302;-122.946;2023-01-28T10:59:42;101483.63;;;6.87;100.00
51468;BME280;37545;45.302;-122.946;2023-01-28T11:02:25;101477.78;;;6.89;100.00
51468;BME280;37545;45.302;-122.946;2023-01-28T11:05:05;101484.69;;;6.90;100.00
51468;BME280;37545;45.302;-122.946;2023-01-28T11:07:34;101478.56;;;6.88;100.00
51468;BME280;37545;45.302;-122.946;2023-01-28T11:10:28;101481.28;;;6.91;100.00
51468;BME280;37545;45.302;-122.946;2023-01-28T11:12:58;101475.47;;;6.94;100.00
51468;BME280;37545;45.302;-122.946;2023-01-28T11:15:27;101470.22;;;6.92;100.00
51468;BME280;37545;45.302;-122.946;2023-01-28T11:17:58;101471.00;;;6.91;100.00
51468;BME280;37545;45.302;-122.946;2023-01-28T11:20:30;101472.63;;;6.89;100.00
51468;BME280;37545;45.302;-122.946;2023-01-28T11:23:02;101471.81;;;6.90;100.00
51468;BME280;37545;45.302;-122.946;2023-01-28T11:25:33;101467.56;;;6.91;100.00
51468;BME280;37545;45.302;-122.946;2023-01-28T11:28:13;101463.22;;;6.90;100.00
51468;BME280;37545;45.302;-122.946;2023-01-28T11:30:43;101458.59;;;6.84;100.00
51468;BME280;37545;45.302;-122.946;2023-01-28T11:33:20;101457.38;;;6.78;100.00
51468;BME280;37545;45.302;-122.946;2023-01-28T11:35:53;101453.66;;;6.72;100.00
51468;BME280;37545;45.302;-122.946;2023-01-28T11:38:23;101453.56;;;6.71;100.00
51468;BME280;37545;45.302;-122.946;2023-01-28T11:40:54;101454.47;;;6.71;100.00
51468;BME280;37545;45.302;-122.946;2023-01-28T11:43:26;101462.09;;;6.70;100.00
51468;BME280;37545;45.302;-122.946;2023-01-28T11:46:02;101455.09;;;6.67;100.00
51468;BME280;37545;45.302;-122.946;2023-01-28T11:48:41;101447.28;;;6.66;100.00
51468;BME280;37545;45.302;-122.946;2023-01-28T11:51:27;101448.88;;;6.64;100.00
51468;BME280;37545;45.302;-122.946;2023-01-28T11:54:00;101438.59;;;6.64;100.00
51468;BME280;37545;45.302;-122.946;2023-01-28T11:56:48;101430.09;;;6.65;100.00
51468;BME280;37545;45.302;-122.946;2023-01-28T11:59:32;101429.22;;;6.64;100.00
51468;BME280;37545;45.302;-122.946;2023-01-28T12:02:17;101436.13;;;6.65;100.00
51468;BME280;37545;45.302;-122.946;2023-01-28T12:05:04;101439.78;;;6.69;100.00
51468;BME280;37545;45.302;-122.946;2023-01-28T12:07:39;101437.34;;;6.72;100.00
51468;BME280;37545;45.302;-122.946;2023-01-28T12:10:17;101439.31;;;6.76;100.00
51468;BME280;37545;45.302;-122.946;2023-01-28T12:13:03;101434.31;;;6.79;100.00
51468;BME280;37545;45.302;-122.946;2023-01-28T12:15:57;101436.28;;;6.83;100.00
51468;BME280;37545;45.302;-122.946;2023-01-28T12:18:42;101426.88;;;6.84;100.00
51468;BME280;37545;45.302;-122.946;2023-01-28T12:21:19;101421.19;;;6.89;100.00
51468;BME280;37545;45.302;-122.946;2023-01-28T12:24:04;101417.94;;;6.93;100.00
51468;BME280;37545;45.302;-122.946;2023-01-28T12:26:41;101414.66;;;6.96;100.00
51468;BME280;37545;45.302;-122.946;2023-01-28T12:29:28;101411.41;;;6.99;100.00
51468;BME280;37545;45.302;-122.946;2023-01-28T12:32:18;101409.06;;;7.03;100.00
51468;BME280;37545;45.302;-122.946;2023-01-28T12:35:20;101413.66;;;7.09;100.00
51468;BME280;37545;45.302;-122.946;2023-01-28T12:37:59;101411.31;;;7.13;100.00
51468;BME280;37545;45.302;-122.946;2023-01-28T12:40:44;101408.13;;;7.18;100.00
51468;BME280;37545;45.302;-122.946;2023-01-28T12:43:19;101410.75;;;7.19;100.00
51468;BME280;37545;45.302;-122.946;2023-01-28T12:45:54;101415.91;;;7.19;100.00
51468;BME280;37545;45.302;-122.946;2023-01-28T12:48:28;101415.91;;;7.19;100.00
51468;BME280;37545;45.302;-122.946;2023-01-28T12:51:03;101421.06;;;7.19;100.00
51468;BME280;37545;45.302;-122.946;2023-01-28T12:53:39;101416.00;;;7.21;100.00